Time;durP1;ratioP1;P1;durP2;ratioP2;P2;SDS_P1;SDS_P2;PMS_P1;PMS_P2;Temp;Humidity;BMP_temperature;BMP_pressure;BME280_temperature;BME280_humidity;BME280_pressure;Samples;Min_cycle;Max_cycle;Signal;HPM_P1;HPM_P2
2023/09/08 00:00:55;;;;;;;10.18;5.10;;;;;;;;;;6213357;28;20124;-77
2023/09/08 00:03:56;;;;;;;7.20;4.90;;;;;;;;;;6219109;28;20376;-77
2023/09/08 00:06:59;;;;;;;6.38;5.10;;;;;;;;;;6212798;28;20045;-77
2023/09/08 00:10:00;;;;;;;7.68;5.20;;;;;;;;;;6208977;28;20046;-76
2023/09/08 00:13:02;;;;;;;7.88;5.50;;;;;;;;;;6210751;28;20050;-78
2023/09/08 00:16:04;;;;;;;7.03;5.05;;;;;;;;;;6210848;28;20042;-78
2023/09/08 00:19:06;;;;;;;8.00;5.45;;;;;;;;;;6208275;28;20050;-78
2023/09/08 00:22:07;;;;;;;8.70;5.55;;;;;;;;;;6214390;28;20049;-78
2023/09/08 00:25:09;;;;;;;8.82;5.40;;;;;;;;;;6213914;28;20479;-77
2023/09/08 00:28:11;;;;;;;8.48;5.72;;;;;;;;;;6217627;28;20618;-78
2023/09/08 00:31:12;;;;;;;10.25;6.10;;;;;;;;;;6206471;28;20042;-76
2023/09/08 00:34:14;;;;;;;9.98;5.53;;;;;;;;;;6201595;28;20057;-77
2023/09/08 00:37:16;;;;;;;7.35;5.18;;;;;;;;;;6222363;28;20054;-78
2023/09/08 00:40:18;;;;;;;8.82;5.32;;;;;;;;;;6189958;28;20520;-77
2023/09/08 00:43:19;;;;;;;9.10;5.78;;;;;;;;;;6179296;28;20766;-79
2023/09/08 00:46:21;;;;;;;7.95;5.28;;;;;;;;;;6174613;28;20054;-79
2023/09/08 00:49:24;;;;;;;7.60;5.40;;;;;;;;;;6193049;28;20526;-77
2023/09/08 00:52:31;;;;;;;8.47;5.70;;;;;;;;;;6196756;28;20498;-78
2023/09/08 00:55:33;;;;;;;7.55;5.40;;;;;;;;;;6207147;28;20438;-77
2023/09/08 00:58:35;;;;;;;7.88;4.80;;;;;;;;;;6219134;28;20045;-78
2023/09/08 01:01:37;;;;;;;8.85;5.32;;;;;;;;;;6219604;28;20041;-77
2023/09/08 01:04:41;;;;;;;9.35;5.40;;;;;;;;;;6219827;28;20038;-78
2023/09/08 01:07:44;;;;;;;6.93;5.53;;;;;;;;;;6209955;28;20048;-76
2023/09/08 01:10:46;;;;;;;;;;;;;;;;;;6225268;28;20049;-78
2023/09/08 01:13:48;;;;;;;8.82;5.40;;;;;;;;;;6218100;28;19925;-77
2023/09/08 01:16:50;;;;;;;8.35;5.55;;;;;;;;;;6221993;28;20053;-78
2023/09/08 01:19:55;;;;;;;9.75;6.50;;;;;;;;;;6218329;28;20522;-78
2023/09/08 01:23:18;;;;;;;9.18;6.15;;;;;;;;;;6217823;28;20041;-76
2023/09/08 01:26:22;;;;;;;9.80;5.47;;;;;;;;;;6191911;28;20057;-76
2023/09/08 01:29:24;;;;;;;8.50;5.22;;;;;;;;;;6216372;28;21008;-79
2023/09/08 01:32:29;;;;;;;9.95;5.60;;;;;;;;;;6215200;28;20065;-79
2023/09/08 01:35:31;;;;;;;7.97;5.95;;;;;;;;;;6211852;28;20054;-78
2023/09/08 01:38:34;;;;;;;7.10;5.45;;;;;;;;;;6195186;28;20045;-77
2023/09/08 01:41:36;;;;;;;8.48;5.22;;;;;;;;;;6197030;28;20066;-77
2023/09/08 01:44:37;;;;;;;7.88;5.90;;;;;;;;;;6223253;28;20046;-76
2023/09/08 01:47:39;;;;;;;8.50;5.70;;;;;;;;;;6225211;28;20042;-77
2023/09/08 01:50:41;;;;;;;8.18;5.65;;;;;;;;;;6210657;28;20046;-76
2023/09/08 01:53:43;;;;;;;7.43;5.35;;;;;;;;;;6206160;28;20559;-79
2023/09/08 01:56:44;;;;;;;8.57;5.63;;;;;;;;;;6224468;28;20065;-78
2023/09/08 01:59:46;;;;;;;9.25;6.55;;;;;;;;;;6200312;28;20069;-76
2023/09/08 02:02:48;;;;;;;10.50;5.90;;;;;;;;;;6219749;28;20046;-77
2023/09/08 02:05:50;;;;;;;7.13;5.15;;;;;;;;;;6223715;28;20060;-76
2023/09/08 02:08:51;;;;;;;7.28;5.82;;;;;;;;;;6204265;28;20334;-78
2023/09/08 02:11:53;;;;;;;10.77;6.22;;;;;;;;;;6219533;28;20065;-78
2023/09/08 02:14:55;;;;;;;8.65;5.57;;;;;;;;;;6198920;28;20045;-78
2023/09/08 02:17:57;;;;;;;9.38;5.40;;;;;;;;;;6221563;28;20137;-79
2023/09/08 02:20:58;;;;;;;9.13;5.40;;;;;;;;;;6203914;28;20046;-77
2023/09/08 02:24:00;;;;;;;7.05;5.13;;;;;;;;;;6217020;28;20148;-76
2023/09/08 02:27:02;;;;;;;9.70;6.05;;;;;;;;;;6215796;28;20171;-78
2023/09/08 02:30:05;;;;;;;5.88;5.25;;;;;;;;;;6212236;28;20045;-76
2023/09/08 02:33:07;;;;;;;8.05;5.32;;;;;;;;;;6223450;28;20049;-77
2023/09/08 02:36:09;;;;;;;8.10;5.28;;;;;;;;;;6201342;28;20042;-76
2023/09/08 02:39:13;;;;;;;8.23;5.53;;;;;;;;;;6205072;28;20096;-76
2023/09/08 02:42:15;;;;;;;9.00;5.90;;;;;;;;;;6199185;28;20444;-77
2023/09/08 02:45:17;;;;;;;7.28;5.72;;;;;;;;;;6205953;28;20053;-77
2023/09/08 02:48:19;;;;;;;7.90;5.45;;;;;;;;;;6211264;28;20046;-77
2023/09/08 02:51:21;;;;;;;7.13;5.40;;;;;;;;;;6210064;28;20138;-77
2023/09/08 02:54:23;;;;;;;8.02;5.50;;;;;;;;;;6205695;28;20587;-77
2023/09/08 02:57:24;;;;;;;8.85;5.40;;;;;;;;;;6210941;28;20092;-78
2023/09/08 03:00:27;;;;;;;12.15;6.15;;;;;;;;;;6203424;28;20096;-77
2023/09/08 03:03:29;;;;;;;8.93;6.28;;;;;;;;;;6207862;28;20045;-77
2023/09/08 03:06:31;;;;;;;8.73;5.70;;;;;;;;;;6198131;28;20158;-77
2023/09/08 03:09:33;;;;;;;8.15;5.75;;;;;;;;;;6164903;28;20050;-77
2023/09/08 03:12:35;;;;;;;7.53;5.30;;;;;;;;;;6183760;28;20050;-77
2023/09/08 03:15:37;;;;;;;8.50;5.20;;;;;;;;;;6200811;28;20046;-76
2023/09/08 03:18:39;;;;;;;9.25;5.30;;;;;;;;;;6199921;28;20180;-76
2023/09/08 03:21:41;;;;;;;7.82;5.47;;;;;;;;;;6205331;28;20042;-77
2023/09/08 03:24:42;;;;;;;9.25;5.88;;;;;;;;;;6203901;28;20053;-77
2023/09/08 03:27:44;;;;;;;10.73;5.75;;;;;;;;;;6204659;28;20770;-75
2023/09/08 03:30:46;;;;;;;8.68;5.60;;;;;;;;;;6193750;28;20046;-77
2023/09/08 03:33:48;;;;;;;9.10;6.25;;;;;;;;;;6184554;28;20126;-78
2023/09/08 03:36:52;;;;;;;11.35;5.82;;;;;;;;;;6211409;28;20081;-76
2023/09/08 03:39:55;;;;;;;10.05;6.18;;;;;;;;;;6177652;28;20053;-77
2023/09/08 03:42:57;;;;;;;11.00;6.25;;;;;;;;;;6204398;28;20041;-78
2023/09/08 03:45:59;;;;;;;12.82;7.15;;;;;;;;;;6181380;28;20052;-77
2023/09/08 03:49:01;;;;;;;16.33;7.63;;;;;;;;;;6208064;28;20507;-78
2023/09/08 03:52:03;;;;;;;14.70;7.80;;;;;;;;;;6206440;28;20042;-75
2023/09/08 03:55:05;;;;;;;17.42;7.72;;;;;;;;;;6168725;28;20527;-78
2023/09/08 03:58:07;;;;;;;16.33;7.47;;;;;;;;;;6185392;28;20050;-78
2023/09/08 04:01:09;;;;;;;12.25;7.90;;;;;;;;;;6154378;28;20544;-77
2023/09/08 04:04:11;;;;;;;12.07;6.70;;;;;;;;;;6180464;28;20050;-76
2023/09/08 04:07:13;;;;;;;14.90;7.50;;;;;;;;;;6192890;28;20169;-76
2023/09/08 04:10:15;;;;;;;11.27;7.13;;;;;;;;;;6193078;28;20058;-75
2023/09/08 04:13:16;;;;;;;14.90;7.70;;;;;;;;;;6186756;28;20057;-79
2023/09/08 04:16:18;;;;;;;15.23;7.95;;;;;;;;;;6189982;28;20047;-76
2023/09/08 04:19:20;;;;;;;21.50;9.85;;;;;;;;;;6168827;28;20698;-78
2023/09/08 04:22:22;;;;;;;16.75;8.00;;;;;;;;;;6180230;28;20050;-78
2023/09/08 04:25:24;;;;;;;17.25;9.10;;;;;;;;;;6191453;28;20047;-79
2023/09/08 04:28:26;;;;;;;17.70;9.07;;;;;;;;;;6216270;28;20049;-79
2023/09/08 04:31:28;;;;;;;19.13;8.20;;;;;;;;;;6174563;28;20066;-78
2023/09/08 04:34:30;;;;;;;17.30;8.30;;;;;;;;;;6210799;28;20034;-77
2023/09/08 04:37:31;;;;;;;12.63;6.88;;;;;;;;;;6214522;28;20213;-79
2023/09/08 04:40:34;;;;;;;11.00;7.35;;;;;;;;;;6219562;28;20050;-78
2023/09/08 04:43:35;;;;;;;10.57;6.75;;;;;;;;;;6202597;28;20053;-78
2023/09/08 04:46:38;;;;;;;15.27;7.03;;;;;;;;;;6224955;28;20125;-78
2023/09/08 04:49:40;;;;;;;12.48;6.70;;;;;;;;;;6206961;28;20042;-79
2023/09/08 04:52:42;;;;;;;8.03;5.83;;;;;;;;;;6207042;28;20043;-79
2023/09/08 04:55:45;;;;;;;10.40;6.20;;;;;;;;;;6224074;28;20046;-78
2023/09/08 04:58:47;;;;;;;10.65;6.00;;;;;;;;;;6195364;28;20050;-79
2023/09/08 05:01:50;;;;;;;11.40;6.40;;;;;;;;;;6196130;28;20097;-77
2023/09/08 05:04:52;;;;;;;10.55;6.50;;;;;;;;;;6193844;28;20530;-78
2023/09/08 05:07:56;;;;;;;15.05;7.38;;;;;;;;;;6188021;28;20049;-78
2023/09/08 05:10:58;;;;;;;10.27;6.53;;;;;;;;;;6183885;28;20176;-78
2023/09/08 05:14:00;;;;;;;9.32;5.93;;;;;;;;;;6195976;28;20053;-78
2023/09/08 05:17:03;;;;;;;10.30;6.28;;;;;;;;;;6224063;28;20046;-78
2023/09/08 05:20:05;;;;;;;11.10;6.78;;;;;;;;;;6191383;28;20042;-77
2023/09/08 05:23:07;;;;;;;11.93;6.28;;;;;;;;;;6238858;28;20102;-76
2023/09/08 05:26:09;;;;;;;10.77;6.72;;;;;;;;;;6233055;28;20041;-78
2023/09/08 05:29:10;;;;;;;11.32;6.57;;;;;;;;;;6213707;28;20042;-78
2023/09/08 05:32:12;;;;;;;12.43;6.38;;;;;;;;;;6206213;28;20042;-75
2023/09/08 05:35:14;;;;;;;9.25;6.32;;;;;;;;;;6194829;28;20049;-75
2023/09/08 05:38:16;;;;;;;10.70;6.40;;;;;;;;;;6188648;28;20073;-74
2023/09/08 05:41:18;;;;;;;11.95;7.03;;;;;;;;;;6201674;28;20042;-75
2023/09/08 05:44:20;;;;;;;19.55;8.35;;;;;;;;;;6206168;28;20408;-75
2023/09/08 05:47:22;;;;;;;15.68;8.75;;;;;;;;;;6206865;28;20038;-78
2023/09/08 05:50:25;;;;;;;11.33;7.07;;;;;;;;;;6198921;28;20042;-77
2023/09/08 05:53:27;;;;;;;11.50;6.85;;;;;;;;;;6219661;28;20046;-79
2023/09/08 05:56:31;;;;;;;11.32;7.55;;;;;;;;;;6216779;28;20037;-76
2023/09/08 05:59:33;;;;;;;12.25;6.60;;;;;;;;;;6211855;28;20105;-79
2023/09/08 06:02:35;;;;;;;9.45;6.38;;;;;;;;;;6213109;28;20125;-78
2023/09/08 06:05:37;;;;;;;10.98;6.78;;;;;;;;;;6207717;28;20046;-78
2023/09/08 06:08:39;;;;;;;16.45;6.80;;;;;;;;;;6213564;28;20038;-76
2023/09/08 06:11:41;;;;;;;9.93;6.80;;;;;;;;;;6212212;28;20069;-79
2023/09/08 06:14:44;;;;;;;;;;;;;;;;;;6221420;28;20046;-75
2023/09/08 06:17:48;;;;;;;9.27;6.45;;;;;;;;;;6218835;28;20272;-77
2023/09/08 06:20:49;;;;;;;10.63;7.38;;;;;;;;;;6208275;28;20104;-78
2023/09/08 06:23:52;;;;;;;10.02;6.88;;;;;;;;;;6215449;28;21580;-77
2023/09/08 06:26:53;;;;;;;8.93;6.50;;;;;;;;;;6211326;28;20168;-78
2023/09/08 06:29:57;;;;;;;9.77;6.93;;;;;;;;;;6199500;28;20507;-77
2023/09/08 06:32:59;;;;;;;11.63;6.60;;;;;;;;;;6203319;28;20058;-77
2023/09/08 06:36:02;;;;;;;10.57;7.40;;;;;;;;;;6211477;28;20034;-78
2023/09/08 06:39:04;;;;;;;17.83;7.82;;;;;;;;;;6203652;28;20113;-76
2023/09/08 06:42:07;;;;;;;10.90;7.28;;;;;;;;;;6219464;28;20157;-77
2023/09/08 06:45:10;;;;;;;11.30;7.38;;;;;;;;;;6211996;28;20654;-78
2023/09/08 06:48:12;;;;;;;12.40;7.38;;;;;;;;;;6213948;28;20124;-78
2023/09/08 06:51:14;;;;;;;11.98;7.60;;;;;;;;;;6209139;28;20523;-77
2023/09/08 06:54:16;;;;;;;9.38;6.97;;;;;;;;;;6209836;28;20053;-77
2023/09/08 06:57:19;;;;;;;10.15;7.05;;;;;;;;;;6209649;28;20077;-78
2023/09/08 07:00:21;;;;;;;;;;;;;;;;;;6206137;28;20045;-79
2023/09/08 07:03:23;;;;;;;9.82;6.63;;;;;;;;;;6188813;28;19929;-78
2023/09/08 07:06:26;;;;;;;9.10;6.57;;;;;;;;;;6184827;28;20642;-77
2023/09/08 07:09:30;;;;;;;10.88;6.63;;;;;;;;;;6193830;28;20037;-77
2023/09/08 07:12:32;;;;;;;8.52;7.10;;;;;;;;;;6206296;28;20110;-78
2023/09/08 07:15:34;;;;;;;11.50;6.50;;;;;;;;;;6209825;28;20046;-78
2023/09/08 07:18:38;;;;;;;9.02;7.05;;;;;;;;;;6204284;28;20440;-77
2023/09/08 07:21:41;;;;;;;9.63;6.90;;;;;;;;;;6207683;28;20053;-77
2023/09/08 07:24:44;;;;;;;;;;;;;;;;;;6204950;28;20046;-78
2023/09/08 07:27:47;;;;;;;10.57;6.63;;;;;;;;;;6220689;28;20051;-77
2023/09/08 07:30:49;;;;;;;13.52;7.15;;;;;;;;;;6208464;28;20042;-77
2023/09/08 07:33:51;;;;;;;10.30;6.97;;;;;;;;;;6215954;28;20132;-78
2023/09/08 07:36:53;;;;;;;8.50;6.75;;;;;;;;;;6206589;28;20046;-77
2023/09/08 07:39:55;;;;;;;10.82;7.32;;;;;;;;;;6200786;28;20038;-76
2023/09/08 07:42:57;;;;;;;11.75;6.85;;;;;;;;;;6191231;28;20049;-76
2023/09/08 07:45:58;;;;;;;9.07;6.97;;;;;;;;;;6202837;28;20042;-76
2023/09/08 07:49:00;;;;;;;8.55;6.60;;;;;;;;;;6206868;28;20181;-76
2023/09/08 07:52:04;;;;;;;7.83;6.53;;;;;;;;;;6204892;28;20188;-75
2023/09/08 07:55:06;;;;;;;12.70;6.70;;;;;;;;;;6194162;28;20081;-76
2023/09/08 07:58:08;;;;;;;7.72;6.43;;;;;;;;;;6196674;28;20050;-76
2023/09/08 08:01:09;;;;;;;9.37;6.50;;;;;;;;;;6203637;28;20057;-77
2023/09/08 08:04:11;;;;;;;7.63;6.50;;;;;;;;;;6198226;28;20053;-76
2023/09/08 08:07:13;;;;;;;10.73;6.90;;;;;;;;;;6201838;28;20398;-76
2023/09/08 08:10:15;;;;;;;10.75;6.70;;;;;;;;;;6194468;28;20795;-76
2023/09/08 08:13:17;;;;;;;8.27;6.47;;;;;;;;;;6198490;28;20050;-77
2023/09/08 08:16:20;;;;;;;10.73;6.30;;;;;;;;;;6220780;28;20046;-77
2023/09/08 08:19:22;;;;;;;9.25;6.00;;;;;;;;;;6200905;28;20049;-77
2023/09/08 08:22:27;;;;;;;6.43;5.70;;;;;;;;;;6216594;28;20051;-78
2023/09/08 08:25:29;;;;;;;7.53;6.70;;;;;;;;;;6215140;28;20128;-80
2023/09/08 08:28:31;;;;;;;6.50;5.55;;;;;;;;;;6222069;28;20496;-79
2023/09/08 08:31:34;;;;;;;;;;;;;;;;;;6219130;28;20049;-79
2023/09/08 08:34:35;;;;;;;7.32;5.15;;;;;;;;;;6213394;28;19936;-76
2023/09/08 08:37:40;;;;;;;5.85;5.18;;;;;;;;;;6219579;28;20034;-78
2023/09/08 08:40:41;;;;;;;7.93;5.75;;;;;;;;;;6207356;28;20069;-78
2023/09/08 08:43:44;;;;;;;6.07;5.43;;;;;;;;;;6230839;28;20423;-78
2023/09/08 08:46:47;;;;;;;5.70;5.10;;;;;;;;;;6214596;28;20116;-78
2023/09/08 08:49:49;;;;;;;6.03;5.30;;;;;;;;;;6216358;28;20195;-78
2023/09/08 08:52:51;;;;;;;7.75;5.50;;;;;;;;;;6192236;28;20049;-76
2023/09/08 08:55:56;;;;;;;6.97;5.07;;;;;;;;;;6211754;28;20080;-78
2023/09/08 08:58:59;;;;;;;6.28;5.28;;;;;;;;;;6210902;28;20057;-77
2023/09/08 09:02:03;;;;;;;9.52;6.47;;;;;;;;;;6186487;28;20045;-78
2023/09/08 09:05:05;;;;;;;7.97;5.55;;;;;;;;;;6206547;28;20042;-77
2023/09/08 09:08:11;;;;;;;5.80;5.13;;;;;;;;;;6190700;28;20519;-77
2023/09/08 09:11:13;;;;;;;6.10;5.50;;;;;;;;;;6208003;28;20048;-77
2023/09/08 09:14:14;;;;;;;8.05;5.47;;;;;;;;;;6210125;28;20050;-75
2023/09/08 09:17:16;;;;;;;5.47;4.97;;;;;;;;;;6205332;28;20060;-77
2023/09/08 09:20:20;;;;;;;6.90;5.20;;;;;;;;;;6184305;28;20100;-77
2023/09/08 09:23:33;;;;;;;5.40;4.90;;;;;;;;;;6199438;28;20246;-77
2023/09/08 09:26:35;;;;;;;6.15;4.95;;;;;;;;;;6190283;28;20042;-77
2023/09/08 09:29:45;;;;;;;;;;;;;;;;;;6179038;28;20065;-76
2023/09/08 09:32:49;;;;;;;5.80;5.10;;;;;;;;;;6180093;28;19945;-77
2023/09/08 09:35:53;;;;;;;5.78;5.03;;;;;;;;;;6190062;28;20530;-76
2023/09/08 09:38:59;;;;;;;6.05;4.75;;;;;;;;;;6201554;28;20049;-78
2023/09/08 09:42:02;;;;;;;5.93;5.20;;;;;;;;;;6205502;28;20091;-75
2023/09/08 09:45:05;;;;;;;4.85;4.45;;;;;;;;;;6210592;28;20072;-76
2023/09/08 09:48:08;;;;;;;7.72;4.50;;;;;;;;;;6184252;28;20121;-76
2023/09/08 09:51:18;;;;;;;6.45;4.95;;;;;;;;;;6193496;28;20054;-78
2023/09/08 09:54:20;;;;;;;5.30;4.80;;;;;;;;;;6174728;28;20125;-77
2023/09/08 09:57:23;;;;;;;4.95;4.43;;;;;;;;;;6187237;28;20046;-77
2023/09/08 10:00:26;;;;;;;6.30;4.75;;;;;;;;;;6186582;28;20511;-77
2023/09/08 10:03:30;;;;;;;7.05;4.57;;;;;;;;;;6175338;28;20688;-75
2023/09/08 10:06:34;;;;;;;5.30;4.57;;;;;;;;;;6183834;28;20542;-77
2023/09/08 10:09:36;;;;;;;7.00;4.80;;;;;;;;;;6179446;28;20273;-77
2023/09/08 10:12:40;;;;;;;5.30;4.30;;;;;;;;;;6181834;28;20043;-77
2023/09/08 10:15:42;;;;;;;6.30;4.20;;;;;;;;;;6174221;28;20042;-77
2023/09/08 10:18:47;;;;;;;6.85;4.70;;;;;;;;;;6187708;28;20053;-79
2023/09/08 10:21:51;;;;;;;5.53;4.63;;;;;;;;;;6184229;28;20046;-78
2023/09/08 10:24:55;;;;;;;8.35;4.65;;;;;;;;;;6174904;28;20142;-75
2023/09/08 10:27:58;;;;;;;6.13;4.72;;;;;;;;;;6188108;28;20519;-77
2023/09/08 10:31:00;;;;;;;5.53;4.43;;;;;;;;;;6180768;28;20042;-77
2023/09/08 10:34:03;;;;;;;7.80;4.45;;;;;;;;;;6177090;28;20043;-77
2023/09/08 10:37:29;;;;;;;5.28;4.30;;;;;;;;;;6180872;28;20046;-79
2023/09/08 10:40:33;;;;;;;4.78;4.28;;;;;;;;;;6184632;28;20045;-79
2023/09/08 10:43:35;;;;;;;8.93;4.43;;;;;;;;;;6186478;28;20039;-79
2023/09/08 10:46:37;;;;;;;7.60;4.22;;;;;;;;;;6185151;28;20056;-79
2023/09/08 10:49:40;;;;;;;5.18;4.10;;;;;;;;;;6190928;28;20038;-78
2023/09/08 10:52:42;;;;;;;6.38;4.68;;;;;;;;;;6185484;28;20090;-78
2023/09/08 10:55:50;;;;;;;5.93;4.30;;;;;;;;;;6180297;28;20054;-79
2023/09/08 10:59:12;;;;;;;4.90;4.45;;;;;;;;;;6167175;28;20047;-77
2023/09/08 11:02:35;;;;;;;4.82;4.22;;;;;;;;;;6188387;28;20093;-78
2023/09/08 11:05:37;;;;;;;6.22;4.50;;;;;;;;;;6189847;28;20050;-78
2023/09/08 11:08:43;;;;;;;4.93;4.53;;;;;;;;;;6193858;28;20058;-78
2023/09/08 11:11:45;;;;;;;7.95;4.40;;;;;;;;;;6195838;28;20038;-77
2023/09/08 11:14:51;;;;;;;4.88;4.40;;;;;;;;;;6185696;28;20054;-76
2023/09/08 11:17:53;;;;;;;6.05;4.57;;;;;;;;;;6211007;28;20132;-77
2023/09/08 11:20:55;;;;;;;7.78;4.43;;;;;;;;;;6213033;28;20065;-78
2023/09/08 11:23:57;;;;;;;5.88;4.30;;;;;;;;;;6215952;28;20510;-78
2023/09/08 11:26:59;;;;;;;7.25;4.50;;;;;;;;;;6204143;28;20056;-77
2023/09/08 11:30:01;;;;;;;6.97;4.60;;;;;;;;;;6223850;28;20057;-79
2023/09/08 11:33:03;;;;;;;5.28;3.90;;;;;;;;;;6210190;28;20050;-78
2023/09/08 11:36:14;;;;;;;5.18;4.13;;;;;;;;;;6215213;28;20048;-77
2023/09/08 11:39:15;;;;;;;4.60;4.20;;;;;;;;;;6206474;28;20044;-80
2023/09/08 11:42:17;;;;;;;6.13;4.53;;;;;;;;;;6212028;28;20046;-77
2023/09/08 11:45:23;;;;;;;6.82;4.07;;;;;;;;;;6199680;28;20042;-77
2023/09/08 11:48:25;;;;;;;6.15;4.13;;;;;;;;;;6228816;28;20499;-76
2023/09/08 11:51:27;;;;;;;;;;;;;;;;;;6216352;28;20081;-78
2023/09/08 11:54:29;;;;;;;8.33;4.30;;;;;;;;;;6211512;28;19928;-78
2023/09/08 11:57:31;;;;;;;4.68;3.70;;;;;;;;;;6209578;28;20092;-76
2023/09/08 12:00:34;;;;;;;5.97;4.30;;;;;;;;;;6208195;28;20671;-79
2023/09/08 12:03:54;;;;;;;4.40;3.92;;;;;;;;;;6210220;28;20038;-76
2023/09/08 12:06:55;;;;;;;4.80;4.10;;;;;;;;;;6213107;28;20049;-76
2023/09/08 12:09:58;;;;;;;5.82;3.75;;;;;;;;;;6209599;28;20104;-77
2023/09/08 12:13:00;;;;;;;4.95;3.97;;;;;;;;;;6207505;28;20042;-79
2023/09/08 12:16:02;;;;;;;4.53;3.72;;;;;;;;;;6208266;28;20057;-78
2023/09/08 12:19:04;;;;;;;5.50;3.65;;;;;;;;;;6204116;28;20176;-79
2023/09/08 12:22:07;;;;;;;4.63;4.00;;;;;;;;;;6190550;28;20497;-78
2023/09/08 12:25:09;;;;;;;6.22;3.67;;;;;;;;;;6206725;28;20034;-77
2023/09/08 12:28:11;;;;;;;4.70;3.80;;;;;;;;;;6206735;28;20043;-78
2023/09/08 12:31:14;;;;;;;5.10;3.97;;;;;;;;;;6185541;28;20042;-76
2023/09/08 12:34:16;;;;;;;5.07;3.75;;;;;;;;;;6182952;28;20039;-78
2023/09/08 12:37:23;;;;;;;4.63;3.92;;;;;;;;;;6186215;28;20062;-77
2023/09/08 12:40:26;;;;;;;6.38;3.95;;;;;;;;;;6202827;28;20092;-79
2023/09/08 12:43:27;;;;;;;4.80;3.80;;;;;;;;;;6181943;28;20038;-76
2023/09/08 12:46:31;;;;;;;4.68;3.45;;;;;;;;;;6183613;28;20047;-79
2023/09/08 12:49:34;;;;;;;6.18;4.13;;;;;;;;;;6209658;28;20115;-77
2023/09/08 12:52:35;;;;;;;;;;;;;;;;;;6184841;28;20046;-79
2023/09/08 12:55:37;;;;;;;4.43;3.85;;;;;;;;;;6187500;28;19965;-78
2023/09/08 12:58:39;;;;;;;4.22;3.83;;;;;;;;;;6202970;28;20042;-79
2023/09/08 13:01:40;;;;;;;5.88;4.00;;;;;;;;;;6219902;28;20049;-79
2023/09/08 13:04:48;;;;;;;5.15;3.63;;;;;;;;;;6215349;28;20046;-75
2023/09/08 13:07:49;;;;;;;5.63;4.13;;;;;;;;;;6203486;28;20046;-79
2023/09/08 13:10:51;;;;;;;5.03;3.65;;;;;;;;;;6220225;28;20427;-76
2023/09/08 13:13:53;;;;;;;4.10;3.67;;;;;;;;;;6222842;28;20124;-79
2023/09/08 13:16:54;;;;;;;;;;;;;;;;;;6206227;28;20065;-78
2023/09/08 13:19:56;;;;;;;6.03;4.15;;;;;;;;;;6206545;28;19929;-78
2023/09/08 13:22:58;;;;;;;5.05;3.95;;;;;;;;;;6206647;28;20042;-78
2023/09/08 13:25:59;;;;;;;;;;;;;;;;;;6202767;28;20042;-77
2023/09/08 13:29:01;;;;;;;4.93;4.13;;;;;;;;;;6212769;28;19948;-78
2023/09/08 13:32:06;;;;;;;;;;;;;;;;;;6215063;28;20041;-79
2023/09/08 13:35:08;;;;;;;5.10;3.97;;;;;;;;;;6200861;28;20287;-77
2023/09/08 13:38:10;;;;;;;4.70;3.90;;;;;;;;;;6212725;28;20050;-81
2023/09/08 13:41:11;;;;;;;3.85;3.40;;;;;;;;;;6212346;28;20037;-83
2023/09/08 13:44:13;;;;;;;4.30;3.90;;;;;;;;;;6220600;28;20423;-83
2023/09/08 13:47:15;;;;;;;7.78;3.88;;;;;;;;;;6212470;28;20066;-79
2023/09/08 13:50:17;;;;;;;4.05;3.45;;;;;;;;;;6219287;28;20045;-78
2023/09/08 13:53:22;;;;;;;4.43;3.67;;;;;;;;;;6215702;28;20117;-80
2023/09/08 13:56:41;;;;;;;5.03;3.95;;;;;;;;;;6230327;28;20057;-79
2023/09/08 13:59:46;;;;;;;4.75;3.70;;;;;;;;;;6213334;28;20056;-79
2023/09/08 14:02:50;;;;;;;11.35;4.03;;;;;;;;;;6197000;28;20191;-81
2023/09/08 14:05:56;;;;;;;6.80;3.63;;;;;;;;;;6209940;28;20179;-81
2023/09/08 14:09:04;;;;;;;5.90;3.72;;;;;;;;;;6189403;28;20096;-77
2023/09/08 14:12:08;;;;;;;3.70;3.40;;;;;;;;;;6196588;28;20061;-78
2023/09/08 14:15:15;;;;;;;3.78;3.47;;;;;;;;;;6205049;28;20049;-76
2023/09/08 14:18:21;;;;;;;4.32;3.53;;;;;;;;;;6218287;28;20041;-75
2023/09/08 14:21:23;;;;;;;4.55;3.40;;;;;;;;;;6204903;28;20045;-80
2023/09/08 14:24:25;;;;;;;4.38;3.92;;;;;;;;;;6210871;28;20514;-80
2023/09/08 14:27:27;;;;;;;4.10;3.70;;;;;;;;;;6220566;28;20046;-80
2023/09/08 14:30:29;;;;;;;4.10;3.63;;;;;;;;;;6211959;28;20053;-79
2023/09/08 14:33:31;;;;;;;4.05;3.72;;;;;;;;;;6221596;28;20046;-77
2023/09/08 14:36:32;;;;;;;4.07;3.67;;;;;;;;;;6209614;28;20523;-75
2023/09/08 14:39:34;;;;;;;3.95;3.63;;;;;;;;;;6222883;28;20061;-79
2023/09/08 14:42:36;;;;;;;3.95;3.22;;;;;;;;;;6217377;28;20053;-78
2023/09/08 14:45:37;;;;;;;4.13;3.70;;;;;;;;;;6219581;28;20041;-78
2023/09/08 14:48:39;;;;;;;4.72;3.47;;;;;;;;;;6215346;28;20139;-76
2023/09/08 14:51:41;;;;;;;7.10;4.15;;;;;;;;;;6221413;28;20046;-78
2023/09/08 14:54:43;;;;;;;;;;;;;;;;;;6221364;28;20053;-77
2023/09/08 14:57:45;;;;;;;4.60;3.87;;;;;;;;;;6223127;28;19921;-78
2023/09/08 15:00:47;;;;;;;4.28;3.50;;;;;;;;;;6214849;28;20465;-78
2023/09/08 15:03:49;;;;;;;4.78;3.75;;;;;;;;;;6219208;28;20054;-76
2023/09/08 15:06:51;;;;;;;4.00;3.60;;;;;;;;;;6210562;28;20068;-76
2023/09/08 15:09:53;;;;;;;4.32;3.70;;;;;;;;;;6213840;28;20434;-78
2023/09/08 15:12:54;;;;;;;3.72;3.40;;;;;;;;;;6212565;28;20050;-77
2023/09/08 15:15:58;;;;;;;5.03;3.78;;;;;;;;;;6207819;28;20057;-77
2023/09/08 15:19:00;;;;;;;4.82;3.67;;;;;;;;;;6211297;28;20128;-77
2023/09/08 15:22:02;;;;;;;5.13;4.00;;;;;;;;;;6214189;28;20150;-80
2023/09/08 15:25:03;;;;;;;4.63;3.92;;;;;;;;;;6215258;28;20046;-78
2023/09/08 15:28:05;;;;;;;;;;;;;;;;;;6190178;28;20069;-80
2023/09/08 15:31:07;;;;;;;5.40;4.17;;;;;;;;;;6185492;28;19926;-77
2023/09/08 15:34:10;;;;;;;5.85;4.38;;;;;;;;;;6212207;28;20433;-79
2023/09/08 15:37:12;;;;;;;5.30;3.80;;;;;;;;;;6216233;28;20046;-80
2023/09/08 15:40:14;;;;;;;4.85;3.90;;;;;;;;;;6215034;28;20083;-78
2023/09/08 15:43:16;;;;;;;4.18;3.78;;;;;;;;;;6201988;28;20060;-79
2023/09/08 15:46:18;;;;;;;4.13;3.72;;;;;;;;;;6187847;28;20070;-79
2023/09/08 15:49:20;;;;;;;4.30;3.90;;;;;;;;;;6188155;28;20039;-80
2023/09/08 15:52:23;;;;;;;4.78;3.88;;;;;;;;;;6182878;28;20117;-79
2023/09/08 15:55:25;;;;;;;4.00;3.63;;;;;;;;;;6185934;28;20110;-77
2023/09/08 15:58:27;;;;;;;6.40;4.00;;;;;;;;;;6210420;28;20041;-77
2023/09/08 16:01:29;;;;;;;5.22;3.75;;;;;;;;;;6209516;28;20140;-78
2023/09/08 16:04:31;;;;;;;4.38;3.60;;;;;;;;;;6212654;28;20053;-77
2023/09/08 16:07:32;;;;;;;;;;;;;;;;;;6215944;28;20046;-76
2023/09/08 16:10:34;;;;;;;4.60;4.20;;;;;;;;;;6210557;28;19940;-77
2023/09/08 16:13:36;;;;;;;5.15;3.75;;;;;;;;;;6212502;28;20056;-75
2023/09/08 16:16:39;;;;;;;;;;;;;;;;;;6214269;28;20042;-77
2023/09/08 16:19:42;;;;;;;26.55;22.33;;;;;;;;;;6190961;28;19922;-78
2023/09/08 16:22:44;;;;;;;4.15;3.75;;;;;;;;;;6224516;28;20052;-80
2023/09/08 16:25:45;;;;;;;4.75;4.00;;;;;;;;;;6215260;28;20041;-80
2023/09/08 16:28:47;;;;;;;4.90;3.95;;;;;;;;;;6202418;28;20583;-79
2023/09/08 16:31:49;;;;;;;5.90;3.60;;;;;;;;;;6212041;28;20056;-78
2023/09/08 16:34:51;;;;;;;4.80;4.13;;;;;;;;;;6219771;28;20069;-79
2023/09/08 16:37:53;;;;;;;5.25;4.00;;;;;;;;;;6219546;28;20048;-79
2023/09/08 16:40:57;;;;;;;4.95;3.70;;;;;;;;;;6217748;28;20200;-78
2023/09/08 16:43:59;;;;;;;4.43;3.85;;;;;;;;;;6215514;28;20057;-77
2023/09/08 16:47:00;;;;;;;5.78;4.15;;;;;;;;;;6214288;28;20042;-79
2023/09/08 16:50:03;;;;;;;4.70;4.00;;;;;;;;;;6217420;28;20046;-77
2023/09/08 16:53:05;;;;;;;4.32;3.70;;;;;;;;;;6203324;28;20050;-79
2023/09/08 16:56:08;;;;;;;4.93;4.13;;;;;;;;;;6219419;28;20049;-78
2023/09/08 16:59:11;;;;;;;5.75;4.40;;;;;;;;;;6214978;28;20962;-78
2023/09/08 17:02:12;;;;;;;6.90;5.75;;;;;;;;;;6212607;28;20080;-76
2023/09/08 17:05:17;;;;;;;7.00;5.47;;;;;;;;;;6215466;28;20050;-76
2023/09/08 17:08:18;;;;;;;6.20;5.03;;;;;;;;;;6189692;28;20083;-77
2023/09/08 17:11:20;;;;;;;17.85;13.20;;;;;;;;;;6207873;28;20054;-79
2023/09/08 17:14:22;;;;;;;13.27;8.60;;;;;;;;;;6202243;28;20072;-78
2023/09/08 17:17:24;;;;;;;5.63;4.97;;;;;;;;;;6183579;28;20046;-77
2023/09/08 17:20:27;;;;;;;7.40;5.30;;;;;;;;;;6199879;28;20053;-78
2023/09/08 17:23:30;;;;;;;6.75;4.65;;;;;;;;;;6196360;28;20065;-77
2023/09/08 17:26:31;;;;;;;7.80;4.75;;;;;;;;;;6186486;28;20062;-75
2023/09/08 17:29:33;;;;;;;4.80;4.00;;;;;;;;;;6196919;28;20053;-76
2023/09/08 17:32:34;;;;;;;6.87;4.10;;;;;;;;;;6208316;28;20491;-78
2023/09/08 17:35:37;;;;;;;5.63;4.17;;;;;;;;;;6201012;28;20446;-78
2023/09/08 17:38:39;;;;;;;;;;;;;;;;;;6194293;28;20454;-77
2023/09/08 17:41:41;;;;;;;5.47;4.32;;;;;;;;;;6191952;28;19930;-78
2023/09/08 17:44:43;;;;;;;4.75;4.20;;;;;;;;;;6188231;28;20049;-77
2023/09/08 17:47:45;;;;;;;5.05;4.15;;;;;;;;;;6185810;28;20046;-77
2023/09/08 17:50:47;;;;;;;8.13;4.73;;;;;;;;;;6181186;28;20051;-77
2023/09/08 17:53:48;;;;;;;4.88;4.32;;;;;;;;;;6200823;28;20054;-74
2023/09/08 17:56:50;;;;;;;7.43;4.78;;;;;;;;;;6202847;28;20057;-79
2023/09/08 17:59:52;;;;;;;4.88;4.35;;;;;;;;;;6206156;28;20077;-78
2023/09/08 18:02:54;;;;;;;5.68;4.63;;;;;;;;;;6205672;28;20047;-77
2023/09/08 18:05:57;;;;;;;5.70;4.10;;;;;;;;;;6208907;28;20064;-76
2023/09/08 18:08:59;;;;;;;4.95;4.45;;;;;;;;;;6204657;28;20045;-75
2023/09/08 18:12:02;;;;;;;8.80;5.03;;;;;;;;;;6196229;28;20053;-78
2023/09/08 18:15:05;;;;;;;;;;;;;;;;;;6200219;28;20077;-77
2023/09/08 18:18:07;;;;;;;5.30;4.30;;;;;;;;;;6203714;28;19936;-78